createdAt,value
2019-04-03T00:00:34.168Z,31.17
2019-04-03T00:05:31.754Z,32.93
2019-04-03T00:10:29.380Z,38.63
2019-04-03T00:15:26.483Z,33.57
2019-04-03T00:20:23.441Z,33.17
2019-04-03T00:25:21.968Z,39.67
2019-04-03T00:30:21.858Z,41.33
2019-04-03T00:35:18.217Z,38.27
2019-04-03T00:40:15.267Z,38.40
2019-04-03T00:45:12.371Z,40.47
2019-04-03T00:50:09.517Z,41.43
2019-04-03T00:55:06.548Z,37.20
2019-04-03T01:00:15.092Z,47.73
2019-04-03T01:05:12.240Z,40.37
2019-04-03T01:10:09.424Z,41.03
2019-04-03T01:15:07.377Z,45.20
2019-04-03T01:20:07.788Z,43.93
2019-04-03T01:25:08.293Z,39.17
2019-04-03T01:30:06.862Z,50.13
2019-04-03T01:35:04.710Z,46.73
2019-04-03T01:40:03.115Z,44.43
2019-04-03T01:45:00.107Z,41.97
2019-04-03T01:49:58.541Z,49.70
2019-04-03T01:54:55.977Z,41.43
2019-04-03T01:59:53.046Z,39.10
2019-04-03T02:04:50.002Z,33.93
2019-04-03T02:09:47.281Z,38.30
2019-04-03T02:14:44.469Z,39.57
2019-04-03T02:19:41.545Z,40.57
2019-04-03T02:24:38.687Z,45.57
2019-04-03T02:29:35.870Z,48.97
2019-04-03T02:34:34.861Z,43.10
2019-04-03T02:39:31.825Z,42.27
2019-04-03T02:44:29.145Z,45.77
2019-04-03T02:49:27.509Z,52.73
2019-04-03T02:54:29.150Z,41.37
2019-04-03T02:59:26.903Z,42.60
2019-04-03T03:04:24.875Z,37.77
2019-04-03T03:09:21.980Z,43.90
2019-04-03T03:14:19.296Z,43.87
2019-04-03T03:19:16.561Z,46.20
2019-04-03T03:24:14.243Z,37.77
2019-04-03T03:29:17.686Z,49.87
2019-04-03T03:34:10.472Z,51.50
2019-04-03T03:39:10.420Z,45.53
2019-04-03T03:44:09.804Z,48.27
2019-04-03T03:49:05.473Z,54.43
2019-04-03T03:54:03.178Z,45.60
2019-04-03T03:59:00.329Z,48.73
2019-04-03T04:03:57.920Z,52.27
2019-04-03T04:08:54.895Z,52.17
2019-04-03T04:13:52.226Z,40.13
2019-04-03T04:18:49.405Z,59.13
2019-04-03T04:23:46.601Z,44.07
2019-04-03T04:28:44.102Z,43.87
2019-04-03T04:33:41.201Z,44.20
2019-04-03T04:38:38.212Z,53.47
2019-04-03T04:43:35.463Z,48.50
2019-04-03T04:48:32.497Z,43.57
2019-04-03T04:53:30.216Z,59.23
2019-04-03T04:58:27.240Z,53.90
2019-04-03T05:03:24.269Z,56.60
2019-04-03T05:08:21.524Z,53.43
2019-04-03T05:13:18.606Z,72.17
2019-04-03T05:18:15.601Z,57.90
2019-04-03T05:23:12.604Z,54.20
2019-04-03T05:28:09.557Z,55.40
2019-04-03T05:33:09.053Z,52.97
2019-04-03T05:38:06.773Z,45.93
2019-04-03T05:43:04.229Z,52.43
2019-04-03T05:48:01.345Z,31.20
2019-04-03T05:52:58.532Z,40.93
2019-04-03T05:57:55.543Z,39.97
2019-04-03T06:02:53.715Z,47.50
2019-04-03T06:07:51.262Z,40.77
2019-04-03T06:12:54.688Z,37.83
2019-04-03T06:17:55.112Z,36.10
2019-04-03T06:22:52.594Z,35.27
2019-04-03T06:27:49.656Z,42.10
2019-04-03T06:32:50.333Z,38.53
2019-04-03T06:37:48.122Z,39.13
2019-04-03T06:42:45.639Z,34.87
2019-04-03T06:47:43.899Z,36.87
2019-04-03T06:52:40.986Z,35.37
2019-04-03T06:57:39.497Z,36.67
2019-04-03T07:02:36.897Z,38.40
2019-04-03T07:07:36.828Z,28.17
2019-04-03T07:12:35.885Z,29.43
2019-04-03T07:17:33.053Z,27.87
2019-04-03T07:22:32.215Z,26.43
2019-04-03T07:27:36.493Z,28.13
2019-04-03T07:32:35.710Z,25.30
2019-04-03T07:37:33.884Z,21.07
2019-04-03T07:42:32.110Z,19.77
2019-04-03T07:47:29.345Z,21.40
2019-04-03T07:52:30.514Z,19.10
2019-04-03T07:57:29.263Z,21.43
2019-04-03T08:02:26.931Z,25.00
2019-04-03T08:07:24.080Z,17.27
2019-04-03T08:12:21.184Z,14.30
2019-04-03T08:17:20.068Z,13.83
2019-04-03T08:22:20.780Z,19.50
2019-04-03T08:27:18.209Z,12.10
2019-04-03T08:32:18.420Z,14.33
2019-04-03T08:37:27.670Z,18.47
2019-04-03T08:42:19.303Z,13.33
2019-04-03T08:47:21.074Z,20.67
2019-04-03T08:52:18.130Z,20.67
2019-04-03T08:57:19.778Z,14.87
2019-04-03T09:02:16.187Z,13.97
2019-04-03T09:07:13.335Z,15.93
2019-04-03T09:12:10.916Z,19.10
2019-04-03T09:17:09.960Z,16.93
2019-04-03T09:22:09.951Z,20.50
2019-04-03T09:27:10.058Z,18.47
2019-04-03T09:32:09.614Z,21.00
2019-04-03T09:37:07.197Z,13.83
2019-04-03T09:42:04.452Z,22.63
2019-04-03T09:47:05.352Z,14.83
2019-04-03T09:52:04.874Z,15.30
2019-04-03T09:57:04.896Z,18.20
2019-04-03T10:02:01.111Z,26.87
2019-04-03T10:06:59.730Z,19.90
2019-04-03T10:11:57.889Z,17.27
2019-04-03T10:16:57.401Z,19.07
2019-04-03T10:21:54.943Z,17.33
2019-04-03T10:26:56.389Z,21.93
2019-04-03T10:31:55.789Z,29.63
2019-04-03T10:36:52.753Z,20.43
2019-04-03T10:41:49.924Z,24.43
2019-04-03T10:46:49.380Z,26.87
2019-04-03T10:51:46.010Z,30.53
2019-04-03T10:56:44.260Z,28.57
2019-04-03T11:01:44.391Z,26.83
2019-04-03T11:06:41.529Z,22.53
2019-04-03T11:11:39.019Z,27.80
2019-04-03T11:16:39.136Z,23.43
2019-04-03T11:21:36.561Z,26.07
2019-04-03T11:26:36.196Z,22.17
2019-04-03T11:31:39.295Z,20.37
2019-04-03T11:36:33.189Z,22.33
2019-04-03T11:41:32.355Z,26.03
2019-04-03T11:46:32.127Z,26.43
2019-04-03T11:51:33.785Z,21.73
2019-04-03T11:56:31.959Z,20.20
2019-04-03T12:01:30.291Z,22.73
2019-04-03T12:06:27.455Z,21.57
2019-04-03T12:11:24.861Z,23.77
2019-04-03T12:16:24.059Z,16.60
2019-04-03T12:21:21.351Z,20.07
2019-04-03T12:26:22.393Z,22.73
2019-04-03T12:31:19.586Z,23.40
2019-04-03T12:36:16.996Z,20.33
2019-04-03T12:41:14.584Z,21.87
2019-04-03T12:46:13.628Z,25.47
2019-04-03T12:51:11.059Z,22.77
2019-04-03T12:56:08.707Z,24.70
2019-04-03T13:01:11.324Z,25.37
2019-04-03T13:06:04.969Z,25.83
2019-04-03T13:11:03.941Z,24.03
2019-04-03T13:16:00.996Z,23.53
2019-04-03T13:20:58.323Z,24.70
2019-04-03T13:25:55.497Z,20.37
2019-04-03T13:30:53.114Z,30.63
2019-04-03T13:35:51.320Z,23.27
2019-04-03T13:40:48.720Z,24.07
2019-04-03T13:45:47.098Z,22.47
2019-04-03T13:50:46.709Z,23.23
2019-04-03T13:55:45.631Z,23.83
2019-04-03T14:00:58.625Z,18.17
2019-04-03T14:05:52.438Z,21.80
2019-04-03T14:10:50.089Z,22.80
2019-04-03T14:15:47.104Z,22.23
2019-04-03T14:20:44.210Z,37.60
2019-04-03T14:25:42.071Z,42.70
2019-04-03T14:30:39.459Z,31.00
2019-04-03T14:35:48.964Z,25.60
2019-04-03T14:40:36.036Z,25.17
2019-04-03T14:45:33.258Z,25.43
2019-04-03T14:50:30.522Z,21.10
2019-04-03T14:55:28.686Z,27.17
2019-04-03T15:00:30.296Z,20.60
2019-04-03T15:05:25.346Z,24.83
2019-04-03T15:10:22.462Z,26.27
2019-04-03T15:15:20.246Z,28.50
2019-04-03T15:20:19.178Z,28.67
2019-04-03T15:25:19.605Z,17.80
2019-04-03T15:30:16.242Z,28.77
2019-04-03T15:35:13.618Z,29.27
2019-04-03T15:40:11.461Z,25.93
2019-04-03T15:45:09.211Z,23.00
2019-04-03T15:50:12.244Z,21.50
2019-04-03T15:55:10.856Z,25.07
2019-04-03T16:00:15.166Z,19.00
2019-04-03T16:05:14.024Z,23.20
2019-04-03T16:10:11.792Z,23.50
2019-04-03T16:15:09.772Z,19.10
2019-04-03T16:20:08.386Z,30.90
2019-04-03T16:25:09.783Z,23.60
2019-04-03T16:30:09.856Z,33.33
2019-04-03T16:35:07.909Z,35.70
2019-04-03T16:40:06.811Z,26.73
2019-04-03T16:45:09.427Z,27.73
2019-04-03T16:50:07.978Z,29.23
2019-04-03T16:55:06.168Z,29.63
2019-04-03T17:00:08.464Z,31.70
2019-04-03T17:05:06.792Z,24.43
2019-04-03T17:10:05.878Z,30.63
2019-04-03T17:15:07.207Z,27.13
2019-04-03T17:20:06.135Z,25.47
2019-04-03T17:25:05.998Z,24.60
2019-04-03T17:30:07.131Z,30.07
2019-04-03T17:35:07.738Z,34.13
2019-04-03T17:40:11.562Z,31.00
2019-04-03T17:45:08.923Z,29.13
2019-04-03T17:50:07.737Z,127.10
2019-04-03T17:55:09.909Z,162.03
2019-04-03T18:00:12.376Z,183.27
2019-04-03T18:05:10.624Z,197.20
2019-04-03T18:10:12.042Z,159.90
2019-04-03T18:15:08.642Z,114.47
2019-04-03T18:20:06.532Z,113.47
2019-04-03T18:25:08.060Z,107.83
2019-04-03T18:30:11.154Z,87.60
2019-04-03T18:35:09.240Z,79.73
2019-04-03T18:40:08.768Z,64.63
2019-04-03T18:45:06.312Z,63.37
2019-04-03T18:50:05.019Z,81.87
2019-04-03T18:55:05.184Z,68.03
2019-04-03T19:00:04.144Z,88.53
2019-04-03T19:05:02.593Z,62.20
2019-04-03T19:10:07.003Z,54.80
2019-04-03T19:14:58.791Z,45.83
2019-04-03T19:20:09.763Z,51.27
2019-04-03T19:24:58.728Z,47.07
2019-04-03T19:29:57.440Z,49.77
2019-04-03T19:34:55.497Z,38.27
2019-04-03T19:39:52.625Z,55.70
2019-04-03T19:44:49.868Z,44.87
2019-04-03T19:49:48.113Z,51.93
2019-04-03T19:54:45.414Z,43.93
2019-04-03T19:59:42.347Z,49.80
2019-04-03T20:04:39.384Z,52.90
2019-04-03T20:09:36.349Z,40.63
2019-04-03T20:14:33.369Z,53.03
2019-04-03T20:19:30.334Z,35.83
2019-04-03T20:24:27.362Z,43.73
2019-04-03T20:29:27.474Z,49.07
2019-04-03T20:34:23.664Z,44.40
2019-04-03T20:39:20.695Z,52.00
2019-04-03T20:44:17.763Z,37.63
2019-04-03T20:49:14.704Z,42.37
2019-04-03T20:54:12.035Z,36.20
2019-04-03T20:59:12.015Z,40.90
2019-04-03T21:04:08.254Z,38.73
2019-04-03T21:09:06.245Z,58.17
2019-04-03T21:14:05.568Z,47.70
2019-04-03T21:19:02.769Z,53.23
2019-04-03T21:23:59.868Z,44.67
2019-04-03T21:28:57.014Z,54.67
2019-04-03T21:33:55.108Z,57.53
2019-04-03T21:38:52.247Z,54.33
2019-04-03T21:43:49.285Z,63.33
2019-04-03T21:48:46.237Z,55.17
2019-04-03T21:53:43.788Z,63.07
2019-04-03T21:58:41.805Z,54.30
2019-04-03T22:03:38.820Z,54.30
2019-04-03T22:08:35.873Z,57.20
2019-04-03T22:13:32.909Z,75.17
2019-04-03T22:18:31.100Z,54.43
2019-04-03T22:23:29.208Z,56.53
2019-04-03T22:28:26.167Z,56.30
2019-04-03T22:33:25.911Z,60.40
2019-04-03T22:38:24.631Z,70.97
2019-04-03T22:43:22.567Z,67.43
2019-04-03T22:48:19.582Z,60.97
2019-04-03T22:53:16.678Z,65.10
2019-04-03T22:58:13.657Z,71.37
2019-04-03T23:03:13.296Z,66.53
2019-04-03T23:08:09.509Z,65.53
2019-04-03T23:13:07.893Z,57.13
2019-04-03T23:18:04.998Z,62.90
2019-04-03T23:23:02.051Z,63.53
2019-04-03T23:27:59.162Z,61.60
2019-04-03T23:32:58.501Z,69.50
2019-04-03T23:37:55.905Z,70.37
2019-04-03T23:42:53.450Z,66.33
2019-04-03T23:47:51.273Z,70.73
2019-04-03T23:52:48.786Z,65.63
2019-04-03T23:57:45.725Z,65.87
